This is the latest recevied weather packets stored in our database for station/object K7EK. If no packets are shown the sender has not sent any weather packets the latest 10 day(s).
| Time | Temp. | Humidity | Pressure | Rain* | Wind** | Luminosity | Snow |
|---|---|---|---|---|---|---|---|
| 1777833057 | 16.11° C | 40% | 1018 hPa | 0 mm | - | - | - |
| 1777832152 | 16.11° C | 40% | 1018.2 hPa | 0 mm | - | - | - |
| 1777830351 | 15.56° C | 41% | 1018.6 hPa | 0 mm | - | - | - |
| 1777824053 | 13.89° C | 40% | 1019.9 hPa | 0 mm | - | - | - |
| 1777822248 | 14.44° C | 47% | 1020.2 hPa | 0 mm | - | - | - |
| 1777820449 | 12.78° C | 50% | 1020.5 hPa | 0 mm | - | - | - |
| 1777818661 | 12.22° C | 56% | 1020.3 hPa | 0 mm | - | - | - |
| 1777812350 | 6.67° C | 99% | 1020 hPa | 0 mm | - | - | - |
| 1777811451 | 5° C | 99% | 1020 hPa | 0 mm | - | - | - |
| 1777806049 | 0° C | 96% | 1019.4 hPa | 0 mm | - | - | - |
| 1777805149 | 0° C | 97% | 1019.4 hPa | 0 mm | - | - | - |
| 1777798854 | 0.56° C | 96% | 1019.2 hPa | 0 mm | - | - | - |
| 1777795251 | 1.11° C | 95% | 1019.1 hPa | 0 mm | - | - | - |
| 1777793458 | 1.11° C | 95% | 1018.8 hPa | 0 mm | - | - | - |
| 1777783548 | 3.33° C | 92% | 1018.9 hPa | 0 mm | - | - | - |
| 1777779949 | 5° C | 88% | 1018.6 hPa | 0 mm | - | - | - |
| 1777774549 | 5.56° C | 83% | 1017.9 hPa | 0 mm | - | - | - |
| 1777772750 | 7.22° C | 78% | 1017.7 hPa | 0 mm | - | - | - |
| 1777761048 | 13.33° C | 52% | 1016.3 hPa | 0 mm | - | - | - |
| 1777757453 | 13.89° C | 53% | 1016.1 hPa | 0 mm | - | - | - |
| 1777755646 | 13.89° C | 52% | 1016.1 hPa | 0 mm | - | - | - |
| 1777751153 | 12.78° C | 51% | 1016.8 hPa | 0 mm | - | - | - |
| 1777744846 | 11.11° C | 59% | 1017.4 hPa | 0 mm | - | - | - |
| 1777739451 | 12.22° C | 59% | 1017.7 hPa | 0 mm | - | - | - |
| 1777733165 | 11.11° C | 69% | 1017.9 hPa | 0 mm | - | - | - |
* Rain latest hour (hover to see other rain measurements)
** Current wind speed in m/s (hover to see current wind gust speed)